Time;durP1;ratioP1;P1;durP2;ratioP2;P2;SDS_P1;SDS_P2;PMS_P1;PMS_P2;Temp;Humidity;BMP_temperature;BMP_pressure;BME280_temperature;BME280_humidity;BME280_pressure;Samples;Min_cycle;Max_cycle;Signal;HPM_P1;HPM_P2
2022/04/26 03:36:56;;;;;;;7.70;6.05;;;;;;;7.53;80.64;101495.06;4965121;28;20513;-77
2022/04/26 03:39:21;;;;;;;11.05;6.13;;;;;;;7.51;80.61;101496.91;4971814;28;20037;-78
2022/04/26 03:41:47;;;;;;;11.43;6.18;;;;;;;7.51;81.14;101502.16;4970732;28;20391;-78
2022/04/26 03:44:12;;;;;;;8.35;6.20;;;;;;;7.51;81.25;101501.31;4970340;28;20137;-78
2022/04/26 03:46:37;;;;;;;9.55;5.97;;;;;;;7.51;81.18;101512.63;4970004;28;20027;-78
2022/04/26 03:49:02;;;;;;;8.80;6.05;;;;;;;7.48;81.42;101510.16;4969483;28;20501;-78
2022/04/26 03:51:28;;;;;;;15.60;6.40;;;;;;;7.49;81.10;101506.63;4970127;28;20035;-79
2022/04/26 03:53:54;;;;;;;9.95;6.25;;;;;;;7.49;81.70;101508.38;4970162;28;20031;-79
2022/04/26 03:56:19;;;;;;;14.05;6.60;;;;;;;7.48;82.14;101511.94;4970971;28;20113;-78
2022/04/26 03:58:44;;;;;;;8.88;6.25;;;;;;;7.48;81.79;101511.94;4969232;28;20130;-82
2022/04/26 04:01:10;;;;;;;9.32;6.28;;;;;;;7.46;82.29;101509.41;4967940;28;20026;-82
2022/04/26 04:03:38;;;;;;;9.98;6.60;;;;;;;7.46;82.35;101509.41;4967663;28;20110;-81
2022/04/26 04:06:04;;;;;;;11.55;6.47;;;;;;;7.45;82.70;101509.47;4967650;28;20031;-81
2022/04/26 04:08:30;;;;;;;9.60;6.45;;;;;;;7.45;82.68;101520.78;4964151;28;20488;-81
2022/04/26 04:10:55;;;;;;;10.25;6.97;;;;;;;7.43;82.62;101520.03;4970225;28;20030;-78
2022/04/26 04:13:20;;;;;;;8.45;6.47;;;;;;;7.45;82.58;101523.41;4970701;28;20035;-77
2022/04/26 04:15:46;;;;;;;11.93;6.53;;;;;;;7.43;82.89;101527.88;4969449;28;20494;-77
2022/04/26 04:20:56;;;;;;;9.38;6.60;;;;;;;7.45;82.76;101535.66;4969658;28;20561;-77
2022/04/26 04:23:22;;;;;;;10.55;7.07;;;;;;;7.43;83.27;101534.88;4966970;28;20026;-77
2022/04/26 04:25:48;;;;;;;8.60;7.00;;;;;;;7.42;82.95;101528.81;4960963;28;20026;-77
2022/04/26 04:28:14;;;;;;;8.60;7.10;;;;;;;7.42;82.95;101536.66;4962577;28;20458;-77
2022/04/26 04:30:40;;;;;;;10.05;7.38;;;;;;;7.42;83.06;101536.66;4968489;28;20027;-77
2022/04/26 04:33:05;;;;;;;12.57;7.15;;;;;;;7.43;83.07;101540.97;4968923;28;20434;-77
2022/04/26 04:35:30;;;;;;;10.82;6.97;;;;;;;7.44;83.49;101544.44;4970817;28;20037;-78
2022/04/26 04:37:55;;;;;;;11.30;7.60;;;;;;;7.44;83.59;101542.66;4969986;28;20113;-78
2022/04/26 04:40:21;;;;;;;14.63;7.38;;;;;;;7.42;83.54;101549.75;4966616;28;20034;-78
2022/04/26 04:42:46;;;;;;;10.13;6.93;;;;;;;7.41;83.55;101552.44;4965692;28;20058;-78
2022/04/26 04:45:12;;;;;;;11.68;7.18;;;;;;;7.39;83.88;101552.53;4969974;28;20398;-78
2022/04/26 04:47:37;;;;;;;11.00;7.53;;;;;;;7.41;83.42;101555.06;4961582;28;20039;-78
2022/04/26 04:50:06;;;;;;;11.23;7.05;;;;;;;7.42;83.56;101559.38;4967691;28;20078;-78
2022/04/26 04:52:31;;;;;;;10.57;7.43;;;;;;;7.41;83.71;101563.75;4969703;28;20030;-78
2022/04/26 04:54:56;;;;;;;11.38;7.30;;;;;;;7.43;84.20;101569.78;4969539;28;20030;-78
2022/04/26 04:57:22;;;;;;;12.07;7.55;;;;;;;7.44;84.09;101573.22;4970113;28;20023;-76
2022/04/26 04:59:48;;;;;;;13.23;7.32;;;;;;;7.41;84.20;101582.09;4970052;28;20042;-77
2022/04/26 05:02:13;;;;;;;11.68;8.02;;;;;;;7.43;84.39;101582.84;4968993;28;20023;-77
2022/04/26 05:04:42;;;;;;;9.52;7.20;;;;;;;7.44;84.17;101576.69;4969893;28;20027;-77
2022/04/26 05:07:08;;;;;;;10.45;6.97;;;;;;;7.45;83.88;101588.88;4969168;28;20030;-77
2022/04/26 05:09:33;;;;;;;11.02;7.80;;;;;;;7.45;84.35;101585.41;4969844;28;20057;-77
2022/04/26 05:12:02;;;;;;;10.95;7.22;;;;;;;7.46;83.75;101592.34;4967256;28;20035;-78
2022/04/26 05:14:27;;;;;;;10.95;7.68;;;;;;;7.47;83.75;101600.09;4968803;28;20051;-77
2022/04/26 05:16:53;;;;;;;9.23;7.75;;;;;;;7.47;84.38;101600.09;4970035;28;20045;-77
2022/04/26 05:19:18;;;;;;;10.73;7.88;;;;;;;7.47;84.03;101601.88;4969010;28;20502;-78
2022/04/26 05:21:43;;;;;;;12.80;8.02;;;;;;;7.45;84.28;101601.97;4970006;28;20427;-77
2022/04/26 05:26:53;;;;;;;11.75;8.10;;;;;;;7.49;84.10;101613.97;4967494;28;20038;-77
2022/04/26 05:29:18;;;;;;;12.00;7.30;;;;;;;7.47;84.86;101610.59;4967181;28;20023;-79
2022/04/26 05:31:43;;;;;;;9.18;7.43;;;;;;;7.49;84.77;101618.38;4972552;28;20027;-77
2022/04/26 05:34:09;;;;;;;13.00;7.90;;;;;;;7.47;84.71;101610.59;4971239;28;20026;-77
2022/04/26 05:36:34;;;;;;;11.05;7.70;;;;;;;7.47;84.92;101610.59;4968143;28;20046;-77
2022/04/26 05:39:00;;;;;;;12.52;8.00;;;;;;;7.48;84.38;101604.41;4972357;28;20026;-77
2022/04/26 05:41:26;;;;;;;13.60;8.20;;;;;;;7.52;84.46;101619.06;4971935;28;20376;-77
2022/04/26 05:43:51;;;;;;;12.10;7.88;;;;;;;7.52;85.11;101619.06;4972785;28;20077;-77
2022/04/26 05:46:16;;;;;;;10.55;7.75;;;;;;;7.53;84.85;101617.28;4972692;28;20066;-77
2022/04/26 05:48:42;;;;;;;10.18;8.15;;;;;;;7.54;84.94;101622.44;4971837;28;20030;-77
2022/04/26 05:51:08;;;;;;;11.43;8.13;;;;;;;7.57;85.25;101618.81;4971389;28;20038;-77
2022/04/26 05:53:35;;;;;;;12.48;8.27;;;;;;;7.58;84.84;101622.28;4970990;28;20022;-78
2022/04/26 05:56:01;;;;;;;13.18;8.15;;;;;;;7.59;85.19;101624.84;4971985;28;20395;-78
2022/04/26 05:58:26;;;;;;;11.05;8.20;;;;;;;7.60;84.78;101625.69;4969271;28;20039;-78
2022/04/26 06:00:51;;;;;;;16.05;9.00;;;;;;;7.61;84.47;101624.78;4972270;28;20086;-76
2022/04/26 06:03:17;;;;;;;10.60;8.52;;;;;;;7.63;84.72;101626.41;4969916;28;20037;-77
2022/04/26 06:05:42;;;;;;;12.95;8.68;;;;;;;7.64;84.99;101633.34;4986061;28;20062;-77
2022/04/26 06:08:09;;;;;;;14.75;8.60;;;;;;;7.66;84.86;101631.50;4970371;28;20417;-77
2022/04/26 06:10:37;;;;;;;13.63;8.80;;;;;;;7.65;85.00;101634.19;4972561;28;20463;-77
2022/04/26 06:13:02;;;;;;;12.57;8.65;;;;;;;7.71;84.90;101639.13;4972424;28;20027;-77
2022/04/26 06:15:28;;;;;;;14.32;9.30;;;;;;;7.74;84.85;101644.22;4970571;28;20058;-77
2022/04/26 06:17:53;;;;;;;12.50;8.73;;;;;;;7.75;84.82;101640.66;4972600;28;20030;-77
2022/04/26 06:20:20;;;;;;;11.75;8.60;;;;;;;7.78;85.66;101638.75;4972251;28;20035;-77
2022/04/26 06:22:46;;;;;;;12.88;9.13;;;;;;;7.81;84.86;101645.59;4971919;28;20118;-77
2022/04/26 06:25:11;;;;;;;13.25;8.73;;;;;;;7.84;85.02;101642.81;4969153;28;20106;-77
2022/04/26 06:27:37;;;;;;;16.65;9.95;;;;;;;7.86;84.92;101646.22;4971451;28;20023;-78
2022/04/26 06:30:02;;;;;;;14.32;9.75;;;;;;;7.89;84.70;101645.22;4971411;28;20027;-78
2022/04/26 06:32:28;;;;;;;14.20;9.75;;;;;;;7.89;84.44;101656.53;4971184;28;20145;-77
2022/04/26 06:34:53;;;;;;;16.30;9.93;;;;;;;7.93;84.36;101658.06;4972040;28;20383;-77
2022/04/26 06:37:18;;;;;;;13.23;9.88;;;;;;;7.94;84.36;101656.31;4970014;28;20042;-77
2022/04/26 06:39:43;;;;;;;14.48;10.23;;;;;;;7.96;84.57;101655.31;4970190;28;20031;-77
2022/04/26 06:42:09;;;;;;;16.17;10.90;;;;;;;7.98;84.72;101658.69;4966671;28;20457;-74
2022/04/26 06:44:34;;;;;;;17.15;10.35;;;;;;;8.00;84.53;101663.84;4970263;28;20557;-74
2022/04/26 06:46:59;;;;;;;15.63;11.00;;;;;;;8.00;84.40;101662.09;4972024;28;20367;-75
2022/04/26 06:49:25;;;;;;;15.63;11.18;;;;;;;8.03;84.82;101661.97;4972401;28;20041;-75
2022/04/26 06:51:50;;;;;;;16.42;11.75;;;;;;;8.05;84.91;101661.88;4967742;28;20161;-75
2022/04/26 06:54:15;;;;;;;19.95;11.35;;;;;;;8.07;84.60;101660.88;4971980;28;20462;-75
2022/04/26 06:56:41;;;;;;;16.33;12.00;;;;;;;8.13;85.05;101668.44;4968597;28;20365;-75
2022/04/26 06:59:07;;;;;;;17.90;12.45;;;;;;;8.15;84.42;101671.81;4969793;28;20039;-75
2022/04/26 07:01:32;;;;;;;16.40;12.48;;;;;;;8.20;84.55;101668.09;4970526;28;20070;-75
2022/04/26 07:03:57;;;;;;;18.15;12.13;;;;;;;8.26;84.30;101675.66;4971034;28;20081;-77
2022/04/26 07:06:23;;;;;;;16.08;11.93;;;;;;;8.32;84.45;101673.56;4967362;28;20113;-76
2022/04/26 07:08:48;;;;;;;16.88;12.57;;;;;;;8.35;83.88;101672.59;4969558;28;20116;-78
2022/04/26 07:11:17;;;;;;;18.27;12.80;;;;;;;8.41;83.24;101672.31;4970292;28;20138;-77
2022/04/26 07:13:42;;;;;;;19.95;13.25;;;;;;;8.49;84.41;101672.75;4966322;28;20113;-77
2022/04/26 07:16:08;;;;;;;15.73;11.75;;;;;;;8.57;83.22;101675.81;4969865;28;20201;-78
2022/04/26 07:18:36;;;;;;;18.98;12.45;;;;;;;8.66;83.38;101672.69;4970302;28;20113;-78
2022/04/26 07:21:01;;;;;;;18.63;12.77;;;;;;;8.74;82.80;101675.75;4968712;28;20125;-78
2022/04/26 07:23:27;;;;;;;15.05;11.30;;;;;;;8.78;81.80;101677.28;4971309;28;20182;-78
2022/04/26 07:25:52;;;;;;;16.60;12.18;;;;;;;8.86;82.35;101683.94;4967121;28;20031;-77
2022/04/26 07:28:19;;;;;;;14.98;12.50;;;;;;;8.94;81.61;101681.75;4969539;28;20027;-78
2022/04/26 07:30:47;;;;;;;17.08;11.88;;;;;;;8.99;80.54;101685.81;4970601;28;20035;-78
2022/04/26 07:35:56;;;;;;;19.08;12.38;;;;;;;9.15;79.92;101691.06;4969342;28;20061;-77
2022/04/26 07:38:22;;;;;;;23.65;11.35;;;;;;;9.25;80.00;101686.19;4969690;28;20486;-76
2022/04/26 07:40:47;;;;;;;14.27;10.55;;;;;;;9.26;78.23;101686.09;4966053;28;20610;-78
2022/04/26 07:43:13;;;;;;;13.73;10.93;;;;;;;9.32;78.83;101688.38;4971981;28;20023;-77
2022/04/26 07:45:40;;;;;;;13.65;10.27;;;;;;;9.37;78.34;101703.88;4970527;28;20362;-77
2022/04/26 07:48:07;;;;;;;16.50;11.05;;;;;;;9.39;77.54;101692.34;4966321;28;20502;-76
2022/04/26 07:50:33;;;;;;;16.38;10.40;;;;;;;9.42;76.67;101700.06;4981859;28;20038;-76
2022/04/26 07:53:00;;;;;;;14.98;10.32;;;;;;;9.45;76.28;101709.56;4962321;28;20118;-76
2022/04/26 07:55:26;;;;;;;13.63;10.18;;;;;;;9.50;76.53;101707.50;4964225;28;20082;-76
2022/04/26 07:57:51;;;;;;;18.77;10.35;;;;;;;9.53;75.84;101711.75;4967592;28;20023;-76
2022/04/26 08:00:16;;;;;;;18.38;10.23;;;;;;;9.56;76.09;101712.41;4963720;28;20068;-77
2022/04/26 08:02:42;;;;;;;14.07;10.07;;;;;;;9.61;75.17;101717.44;4962594;28;20036;-76
2022/04/26 08:05:07;;;;;;;14.00;10.48;;;;;;;9.63;75.66;101723.47;4970006;28;20033;-76
2022/04/26 08:07:39;;;;;;;18.77;10.48;;;;;;;9.65;74.26;101721.59;4970375;28;20026;-76
2022/04/26 08:10:06;;;;;;;14.52;9.07;;;;;;;9.70;74.73;101724.81;4984675;28;20050;-77
2022/04/26 08:12:32;;;;;;;14.85;9.82;;;;;;;9.75;75.37;101722.75;4965115;28;20497;-77
2022/04/26 08:14:57;;;;;;;15.73;9.80;;;;;;;9.82;75.91;101729.38;4969612;28;20141;-77
2022/04/26 08:17:22;;;;;;;14.48;9.52;;;;;;;9.83;74.34;101738.94;4970347;28;20813;-77
2022/04/26 08:19:48;;;;;;;14.20;9.38;;;;;;;9.89;74.15;101729.84;4969699;28;20031;-76
2022/04/26 08:22:13;;;;;;;19.20;9.30;;;;;;;9.92;74.19;101745.44;4969088;28;20018;-77
2022/04/26 08:27:22;;;;;;;14.85;9.27;;;;;;;10.05;74.72;101749.09;4969083;28;20037;-77
2022/04/26 08:29:48;;;;;;;12.80;9.07;;;;;;;10.09;73.88;101747.97;4967767;28;20026;-77
2022/04/26 08:32:13;;;;;;;12.90;8.52;;;;;;;10.20;74.70;101750.00;4969878;28;20031;-76
2022/04/26 08:34:39;;;;;;;12.00;7.70;;;;;;;10.21;72.58;101749.09;4966095;28;20105;-76
2022/04/26 08:37:05;;;;;;;12.13;8.02;;;;;;;10.25;72.25;101755.84;4968340;28;20062;-76
2022/04/26 08:39:30;;;;;;;14.57;8.15;;;;;;;10.32;73.53;101758.03;4971283;28;20097;-77
2022/04/26 08:41:59;;;;;;;13.68;8.02;;;;;;;10.40;73.15;101762.84;4968907;28;20034;-77
2022/04/26 08:44:29;;;;;;;14.50;7.80;;;;;;;10.47;72.52;101758.09;4970003;28;20027;-77
2022/04/26 08:52:28;;;;;;;11.07;7.15;;;;;;;10.59;70.91;101763.47;4971276;28;20065;-77
2022/04/26 08:54:54;;;;;;;11.80;7.28;;;;;;;10.64;70.29;101761.41;4970813;28;20038;-77
2022/04/26 08:57:19;;;;;;;13.20;7.07;;;;;;;10.63;69.68;101759.72;4970120;28;20085;-77
2022/04/26 08:59:47;;;;;;;13.32;7.20;;;;;;;10.78;71.20;101762.34;4960845;28;20119;-77
2022/04/26 09:02:20;;;;;;;15.10;7.03;;;;;;;10.85;69.82;101764.56;4952219;28;20387;-77
2022/04/26 09:04:48;;;;;;;11.50;6.72;;;;;;;10.98;69.87;101768.13;4954623;28;20057;-77
2022/04/26 09:07:28;;;;;;;12.15;6.75;;;;;;;11.14;70.10;101761.91;4971431;28;20368;-77
2022/04/26 09:10:15;;;;;;;10.77;6.78;;;;;;;11.29;69.03;101768.88;4971175;28;20547;-77
2022/04/26 09:13:10;;;;;;;11.95;5.88;;;;;;;11.43;68.70;101768.00;4970306;28;20035;-77
2022/04/26 09:15:41;;;;;;;12.82;6.35;;;;;;;11.48;65.64;101768.56;4966673;28;20054;-77
2022/04/26 09:18:17;;;;;;;10.50;6.20;;;;;;;11.65;66.96;101768.38;4950717;28;20031;-77
2022/04/26 09:20:44;;;;;;;8.98;5.65;;;;;;;11.77;66.00;101767.56;4951579;29;20023;-77
2022/04/26 09:23:16;;;;;;;10.90;5.90;;;;;;;11.89;66.87;101763.31;4966102;28;20045;-77
2022/04/26 09:25:43;;;;;;;9.20;6.32;;;;;;;12.05;66.79;101765.81;4968628;28;20729;-77
2022/04/26 09:28:08;;;;;;;9.68;5.40;;;;;;;12.15;63.95;101767.75;4984897;28;20027;-77
2022/04/26 09:30:35;;;;;;;8.93;5.32;;;;;;;12.30;63.59;101770.31;4970596;28;20061;-77
2022/04/26 09:33:00;;;;;;;8.57;5.07;;;;;;;12.40;63.07;101774.88;4969576;28;20427;-77
2022/04/26 09:35:32;;;;;;;10.48;5.28;;;;;;;12.43;60.65;101785.25;4961694;28;20059;-77
2022/04/26 09:37:59;;;;;;;11.48;5.20;;;;;;;12.50;60.88;101783.91;4964978;28;20015;-77
2022/04/26 09:40:28;;;;;;;9.05;4.75;;;;;;;12.62;61.52;101782.22;4969094;28;20442;-77
2022/04/26 09:42:54;;;;;;;9.57;5.20;;;;;;;12.76;60.05;101787.38;4963211;28;20054;-77
2022/04/26 09:45:19;;;;;;;9.82;4.65;;;;;;;12.88;60.80;101783.09;4960514;28;20105;-77
2022/04/26 09:47:45;;;;;;;9.65;4.80;;;;;;;13.01;60.62;101791.84;4963440;28;20110;-78
2022/04/26 09:50:13;;;;;;;9.32;4.35;;;;;;;13.17;59.29;101796.94;4959275;28;20406;-77
2022/04/26 09:52:39;;;;;;;9.63;4.30;;;;;;;13.25;58.46;101794.63;4958842;28;20035;-77
2022/04/26 09:55:06;;;;;;;7.80;4.30;;;;;;;13.30;58.71;101789.88;4954447;28;20027;-77
2022/04/26 09:57:36;;;;;;;14.32;5.40;;;;;;;13.38;58.19;101797.25;4953647;28;20031;-77
2022/04/26 10:00:09;;;;;;;10.70;5.28;;;;;;;13.38;58.17;101800.75;4956718;28;20043;-77
2022/04/26 10:02:37;;;;;;;9.35;4.97;;;;;;;13.43;58.89;101801.25;4960267;28;20769;-77
2022/04/26 10:05:05;;;;;;;8.88;5.10;;;;;;;13.38;57.76;101799.91;4962226;28;20023;-78
2022/04/26 10:07:35;;;;;;;9.88;4.93;;;;;;;13.62;60.89;101800.81;4961498;28;20043;-78
2022/04/26 10:10:02;;;;;;;9.57;5.07;;;;;;;13.77;59.30;101797.06;4962780;28;20230;-78
2022/04/26 10:12:28;;;;;;;10.02;5.38;;;;;;;13.76;57.31;101803.31;4958170;28;20419;-78
2022/04/26 10:14:54;;;;;;;8.70;5.00;;;;;;;13.83;56.76;101809.00;4960595;28;20133;-77
2022/04/26 10:17:20;;;;;;;7.32;4.85;;;;;;;13.92;58.74;101815.41;4959628;28;20456;-78
2022/04/26 10:19:46;;;;;;;9.48;4.78;;;;;;;13.93;55.56;101815.28;4960814;28;20509;-77
2022/04/26 10:22:15;;;;;;;8.63;4.80;;;;;;;13.85;54.21;101817.66;4966336;28;20026;-77
2022/04/26 10:25:00;;;;;;;7.93;4.55;;;;;;;13.82;54.07;101819.69;4963302;28;20031;-77
2022/04/26 10:27:27;;;;;;;9.48;4.90;;;;;;;13.88;54.54;101822.72;4959585;28;20077;-77
2022/04/26 10:29:53;;;;;;;8.07;4.22;;;;;;;13.84;54.38;101828.34;4961470;28;20026;-77
2022/04/26 10:32:42;;;;;;;7.07;4.65;;;;;;;13.83;54.94;101816.91;4964650;28;20035;-78
2022/04/26 10:35:25;;;;;;;7.72;4.80;;;;;;;13.86;55.05;101816.69;4959206;28;20067;-78
2022/04/26 10:38:12;;;;;;;7.53;4.30;;;;;;;13.95;56.17;101831.06;4966069;28;20057;-78
2022/04/26 10:41:05;;;;;;;7.85;4.60;;;;;;;14.08;55.89;101821.28;4983433;28;20026;-78
2022/04/26 10:43:31;;;;;;;8.85;4.65;;;;;;;14.07;53.83;101827.53;4967175;28;20037;-78
2022/04/26 10:46:14;;;;;;;7.30;4.30;;;;;;;14.23;54.68;101835.19;4966393;28;20481;-76
2022/04/26 10:48:40;;;;;;;7.82;4.63;;;;;;;14.34;51.69;101819.34;4959364;28;20041;-76
2022/04/26 10:51:31;;;;;;;7.20;4.15;;;;;;;14.43;53.97;101823.19;4962847;28;20034;-76
2022/04/26 10:53:56;;;;;;;9.15;5.00;;;;;;;14.40;51.29;101832.97;4962527;28;20062;-76
2022/04/26 10:56:21;;;;;;;6.18;4.88;;;;;;;14.38;50.49;101826.94;4962522;28;20510;-79
2022/04/26 10:58:53;;;;;;;6.15;4.20;;;;;;;14.41;50.68;101836.50;4962037;28;20027;-80
2022/04/26 11:01:23;;;;;;;6.93;4.32;;;;;;;14.45;49.60;101830.06;4963024;28;20058;-77
2022/04/26 11:03:52;;;;;;;6.38;4.32;;;;;;;14.43;49.73;101833.78;4964360;28;20027;-76
2022/04/26 11:06:38;;;;;;;6.88;4.90;;;;;;;14.50;52.32;101827.06;4963985;28;20118;-77
2022/04/26 11:09:12;;;;;;;6.65;4.07;;;;;;;14.51;49.89;101828.75;4964386;28;20030;-77
2022/04/26 11:11:50;;;;;;;7.75;3.92;;;;;;;14.74;51.62;101831.34;4966491;28;20149;-77
2022/04/26 11:14:17;;;;;;;9.88;4.72;;;;;;;14.74;49.71;101823.38;4961308;28;20051;-78
2022/04/26 11:17:03;;;;;;;8.20;4.43;;;;;;;14.88;51.38;101819.69;4962779;28;20594;-78
2022/04/26 11:19:31;;;;;;;7.78;4.70;;;;;;;14.85;49.14;101821.75;4958528;28;20027;-77
2022/04/26 11:22:02;;;;;;;5.88;4.65;;;;;;;14.98;50.21;101833.09;4958661;28;20027;-78
2022/04/26 11:29:55;;;;;;;7.45;5.18;;;;;;;15.24;48.50;101828.44;4957714;28;20410;-78
2022/04/26 11:32:31;;;;;;;7.22;5.30;;;;;;;15.38;49.80;101824.69;4955138;28;20039;-77
2022/04/26 11:34:56;;;;;;;6.53;4.80;;;;;;;15.52;49.02;101816.47;4960209;28;20562;-77
2022/04/26 11:37:22;;;;;;;7.75;4.80;;;;;;;15.61;46.45;101826.41;4971897;28;20099;-77
2022/04/26 11:39:48;;;;;;;7.47;4.75;;;;;;;15.68;46.07;101829.41;4957283;28;20034;-77
2022/04/26 11:42:13;;;;;;;8.52;4.63;;;;;;;15.84;46.25;101822.75;4958912;28;20034;-77
2022/04/26 11:44:59;;;;;;;7.45;4.97;;;;;;;15.89;47.68;101836.50;4967095;28;20031;-78
2022/04/26 11:47:41;;;;;;;8.00;4.63;;;;;;;15.94;47.32;101823.69;4964659;28;20048;-78
2022/04/26 11:50:14;;;;;;;7.53;4.68;;;;;;;16.11;46.73;101829.47;4965115;28;20143;-78
2022/04/26 11:52:41;;;;;;;6.68;4.97;;;;;;;16.11;46.71;101830.31;4964135;28;20027;-77
2022/04/26 11:55:07;;;;;;;6.85;5.22;;;;;;;16.24;45.50;101838.09;4963466;28;20590;-77
2022/04/26 11:57:32;;;;;;;7.38;4.93;;;;;;;16.36;45.68;101839.72;4950111;28;20043;-78
2022/04/26 11:59:59;;;;;;;5.82;4.80;;;;;;;16.32;44.56;101842.78;4963909;28;20069;-77
2022/04/26 12:02:25;;;;;;;9.57;5.07;;;;;;;16.32;45.06;101850.75;4964057;28;20039;-78
2022/04/26 12:04:51;;;;;;;6.60;4.20;;;;;;;16.22;42.03;101851.50;4963507;28;20423;-78
2022/04/26 12:07:17;;;;;;;6.38;4.22;;;;;;;16.24;41.49;101846.91;4962055;28;20034;-77
2022/04/26 12:09:43;;;;;;;5.78;4.20;;;;;;;16.30;42.53;101840.25;4962553;28;20085;-77
2022/04/26 12:12:10;;;;;;;7.55;4.68;;;;;;;16.31;43.10;101847.25;4962558;28;20030;-78
2022/04/26 12:14:40;;;;;;;7.35;4.90;;;;;;;16.37;43.26;101861.81;4961637;28;20051;-77
2022/04/26 12:17:18;;;;;;;6.47;4.50;;;;;;;16.49;44.05;101842.25;4964275;28;20031;-77
2022/04/26 12:19:50;;;;;;;6.75;4.30;;;;;;;16.55;44.22;101845.22;4962738;28;20046;-77
2022/04/26 12:22:17;;;;;;;5.90;4.40;;;;;;;16.59;42.79;101844.00;4963344;28;20042;-77
2022/04/26 12:24:47;;;;;;;5.32;4.50;;;;;;;16.58;41.23;101844.97;4963636;28;20019;-77
2022/04/26 12:27:17;;;;;;;7.22;4.20;;;;;;;16.72;42.19;101848.31;4968288;28;20026;-77
2022/04/26 12:29:48;;;;;;;5.35;3.90;;;;;;;16.77;40.12;101840.78;4968764;28;20030;-77
2022/04/26 12:32:15;;;;;;;6.43;3.88;;;;;;;16.78;39.50;101845.97;4970365;28;20034;-78
2022/04/26 12:34:55;;;;;;;5.65;3.60;;;;;;;16.88;42.27;101846.91;4985357;28;20050;-78
2022/04/26 12:37:23;;;;;;;7.75;4.00;;;;;;;16.88;39.02;101840.75;4963407;28;20030;-78
2022/04/26 12:39:53;;;;;;;3.97;3.33;;;;;;;17.01;39.55;101843.19;4965441;28;20047;-78
2022/04/26 12:42:24;;;;;;;4.43;3.75;;;;;;;16.96;39.75;101848.06;4966329;28;20145;-78
2022/04/26 12:44:57;;;;;;;5.85;4.05;;;;;;;17.15;40.84;101842.84;4970004;28;20069;-78
2022/04/26 12:50:31;;;;;;;4.15;3.53;;;;;;;17.33;40.50;101846.59;4968732;28;20038;-78
2022/04/26 12:53:00;;;;;;;5.25;3.80;;;;;;;17.44;40.74;101843.84;4967672;28;20109;-78
2022/04/26 12:55:30;;;;;;;6.18;4.18;;;;;;;17.58;40.47;101839.13;4970442;28;20031;-78
2022/04/26 12:58:00;;;;;;;5.45;3.70;;;;;;;17.63;40.82;101831.59;4966291;28;20125;-78
2022/04/26 13:00:26;;;;;;;5.97;4.30;;;;;;;17.61;40.09;101830.88;4969409;28;20031;-78
2022/04/26 13:02:56;;;;;;;6.60;4.68;;;;;;;17.65;40.29;101834.97;4981376;28;20071;-78
2022/04/26 13:05:22;;;;;;;6.35;4.35;;;;;;;17.71;40.72;101832.63;4966634;28;20367;-78
2022/04/26 13:07:47;;;;;;;7.28;4.78;;;;;;;17.59;39.92;101841.66;4968688;28;20015;-78
2022/04/26 13:10:16;;;;;;;6.95;4.40;;;;;;;17.57;41.00;101829.47;4969119;28;20026;-79
2022/04/26 13:12:42;;;;;;;7.93;4.57;;;;;;;17.76;41.91;101832.22;4968397;28;20113;-79
2022/04/26 13:15:08;;;;;;;7.00;4.43;;;;;;;17.73;39.58;101837.81;4964164;28;20470;-79
2022/04/26 13:17:35;;;;;;;6.30;4.90;;;;;;;17.71;39.74;101839.78;4962482;28;20035;-79
2022/04/26 13:20:00;;;;;;;5.22;4.18;;;;;;;17.73;39.93;101833.34;4969587;28;20501;-79
2022/04/26 13:22:26;;;;;;;6.05;4.55;;;;;;;17.72;40.08;101836.16;4968394;28;20027;-79
2022/04/26 13:24:51;;;;;;;10.25;4.20;;;;;;;17.78;41.16;101836.44;4968617;28;20041;-79
2022/04/26 13:27:18;;;;;;;5.18;4.28;;;;;;;17.55;40.21;101841.06;4977634;28;20035;-79
2022/04/26 13:29:43;;;;;;;9.25;4.30;;;;;;;17.50;40.22;101840.66;4984167;28;20150;-79
2022/04/26 13:32:08;;;;;;;6.40;4.47;;;;;;;17.51;40.96;101836.16;4959000;28;20031;-79
2022/04/26 13:34:34;;;;;;;7.15;3.97;;;;;;;17.47;41.29;101843.56;4970644;28;20098;-79
2022/04/26 13:36:59;;;;;;;5.53;4.30;;;;;;;17.34;40.30;101840.31;4963635;28;20054;-77
2022/04/26 13:39:24;;;;;;;7.05;4.38;;;;;;;17.33;41.27;101835.97;4967236;28;20022;-78
2022/04/26 13:41:50;;;;;;;5.30;3.92;;;;;;;17.41;41.18;101844.09;4969783;28;20055;-78
2022/04/26 13:44:19;;;;;;;6.90;4.40;;;;;;;17.58;42.26;101839.13;4956978;28;20034;-78
2022/04/26 13:46:48;;;;;;;7.25;4.20;;;;;;;17.53;41.69;101839.53;4952898;28;20027;-78
2022/04/26 13:49:14;;;;;;;6.50;4.40;;;;;;;17.53;41.78;101848.34;4953174;28;20031;-78
2022/04/26 13:51:39;;;;;;;5.53;4.00;;;;;;;17.62;41.36;101853.88;4971113;28;20391;-78
2022/04/26 13:54:05;;;;;;;7.28;4.20;;;;;;;17.55;40.40;101846.41;4971342;28;20031;-77
2022/04/26 13:56:30;;;;;;;5.32;3.90;;;;;;;17.42;39.66;101851.13;4964123;28;20460;-77
2022/04/26 13:58:56;;;;;;;7.30;3.88;;;;;;;17.33;40.33;101856.41;4973817;28;20026;-77
2022/04/26 14:01:23;;;;;;;8.85;3.67;;;;;;;17.22;40.33;101857.34;4971813;28;20086;-77
2022/04/26 14:03:49;;;;;;;4.80;3.70;;;;;;;17.13;39.66;101853.63;4973286;28;20058;-77
2022/04/26 14:06:18;;;;;;;5.43;3.90;;;;;;;17.14;40.67;101857.13;4968476;28;20019;-76
2022/04/26 14:08:48;;;;;;;6.47;3.83;;;;;;;17.02;40.64;101859.03;4962478;28;20061;-77
2022/04/26 14:11:14;;;;;;;4.88;3.20;;;;;;;16.96;40.66;101858.69;4969435;28;20416;-78
2022/04/26 14:21:47;;;;;;;5.93;4.10;;;;;;;16.70;39.74;101856.41;4972856;28;20038;-76
2022/04/26 14:21:52;;;;;;;7.57;3.45;;;;;;;16.44;41.46;101861.22;4964142;28;20093;-78
2022/04/26 14:24:18;;;;;;;4.95;3.45;;;;;;;16.49;40.60;101863.50;4960208;28;20035;-78
2022/04/26 14:26:43;;;;;;;5.43;3.25;;;;;;;16.43;40.83;101864.00;4968644;28;20111;-79
2022/04/26 14:29:08;;;;;;;4.75;3.10;;;;;;;16.36;40.34;101855.66;4968751;28;20015;-79
2022/04/26 14:31:35;;;;;;;5.13;3.22;;;;;;;16.35;40.48;101864.59;4982346;28;20034;-79
2022/04/26 14:34:01;;;;;;;4.35;3.45;;;;;;;16.33;40.65;101863.06;4963904;28;20023;-79
2022/04/26 14:36:26;;;;;;;5.07;3.38;;;;;;;16.26;40.46;101860.91;4973583;28;20170;-79
2022/04/26 14:38:52;;;;;;;5.47;3.15;;;;;;;16.37;40.99;101851.19;4967718;28;20113;-78
2022/04/26 14:41:17;;;;;;;9.23;3.42;;;;;;;16.35;40.82;101863.75;4973592;28;20054;-81
2022/04/26 14:43:42;;;;;;;4.32;3.20;;;;;;;16.25;41.02;101863.69;4966044;28;20030;-82
2022/04/26 14:46:08;;;;;;;8.05;3.80;;;;;;;16.32;41.06;101875.50;4965540;28;20019;-78
2022/04/26 14:48:33;;;;;;;5.38;3.30;;;;;;;16.28;41.79;101863.44;4987861;28;20371;-79
2022/04/26 14:50:58;;;;;;;5.47;3.33;;;;;;;16.20;41.46;101861.41;4972173;28;20093;-79
2022/04/26 14:53:24;;;;;;;4.90;4.03;;;;;;;16.24;42.15;101869.97;4969309;28;20089;-79
2022/04/26 14:55:49;;;;;;;5.47;3.85;;;;;;;16.12;41.33;101870.97;4968784;28;20038;-78
2022/04/26 14:58:15;;;;;;;4.47;3.40;;;;;;;16.10;41.44;101867.59;4973284;28;20043;-78
2022/04/26 15:00:41;;;;;;;4.65;3.22;;;;;;;16.06;42.00;101869.66;4973066;28;20034;-78
2022/04/26 15:03:06;;;;;;;7.07;3.30;;;;;;;16.04;41.13;101868.94;4971444;28;20019;-79
2022/04/26 15:05:32;;;;;;;3.97;3.28;;;;;;;15.90;40.81;101864.72;4974352;28;20097;-78
2022/04/26 15:10:41;;;;;;;3.53;3.15;;;;;;;15.75;41.66;101867.75;4965562;28;20537;-78
2022/04/26 15:18:35;;;;;;;4.55;3.40;;;;;;;15.54;40.94;101865.78;4973515;28;20154;-78
2022/04/26 15:21:05;;;;;;;3.92;3.33;;;;;;;15.56;41.64;101863.88;4972542;28;20098;-78
2022/04/26 15:23:31;;;;;;;5.85;3.20;;;;;;;15.56;42.06;101869.16;4973230;28;20044;-78
2022/04/26 15:25:56;;;;;;;4.13;3.10;;;;;;;15.54;40.46;101879.06;4971409;28;20831;-78
2022/04/26 15:28:23;;;;;;;3.35;3.05;;;;;;;15.60;42.04;101878.59;4988979;28;20046;-78
2022/04/26 15:30:50;;;;;;;5.72;3.30;;;;;;;15.47;39.81;101864.59;4971781;28;20058;-78
2022/04/26 15:33:16;;;;;;;3.72;2.40;;;;;;;15.54;40.72;101864.94;4961445;28;20062;-78
2022/04/26 15:35:42;;;;;;;4.10;3.10;;;;;;;15.54;40.71;101872.91;4958880;28;20035;-78
2022/04/26 15:38:12;;;;;;;2.85;2.65;;;;;;;15.55;40.36;101870.13;4963444;28;20091;-78
2022/04/26 15:40:41;;;;;;;5.25;2.63;;;;;;;15.55;39.33;101871.94;4960508;28;20045;-78